createdAt,value
2022-12-06T00:01:39.034Z,25.35
2022-12-06T00:04:11.635Z,21.67
2022-12-06T00:06:43.075Z,20.58
2022-12-06T00:09:19.292Z,18.95
2022-12-06T00:11:48.275Z,21.00
2022-12-06T00:14:19.509Z,20.10
2022-12-06T00:16:48.628Z,19.75
2022-12-06T00:19:20.883Z,19.88
2022-12-06T00:21:49.935Z,20.70
2022-12-06T00:24:20.720Z,22.13
2022-12-06T00:26:51.090Z,24.77
2022-12-06T00:29:24.161Z,20.05
2022-12-06T00:31:53.103Z,25.17
2022-12-06T00:34:21.813Z,22.83
2022-12-06T00:36:50.721Z,27.52
2022-12-06T00:39:20.296Z,21.73
2022-12-06T00:41:49.160Z,22.00
2022-12-06T00:44:17.875Z,23.73
2022-12-06T00:46:47.941Z,23.17
2022-12-06T00:49:16.670Z,25.42
2022-12-06T00:51:45.287Z,24.95
2022-12-06T00:54:16.160Z,26.10
2022-12-06T00:56:44.796Z,22.15
2022-12-06T00:59:13.404Z,23.00
2022-12-06T01:01:43.208Z,24.70
2022-12-06T01:04:13.259Z,22.73
2022-12-06T01:06:41.791Z,19.45
2022-12-06T01:09:12.289Z,23.00
2022-12-06T01:11:40.517Z,25.38
2022-12-06T01:14:09.139Z,32.83
2022-12-06T01:16:37.363Z,23.50
2022-12-06T01:19:08.374Z,22.15
2022-12-06T01:21:37.964Z,26.38
2022-12-06T01:24:06.978Z,19.90
2022-12-06T01:26:36.885Z,21.85
2022-12-06T01:29:05.843Z,28.67
2022-12-06T01:31:38.521Z,22.52
2022-12-06T01:34:08.952Z,18.45
2022-12-06T01:36:38.708Z,21.33
2022-12-06T01:39:10.764Z,18.65
2022-12-06T01:41:40.305Z,21.83
2022-12-06T01:44:09.373Z,23.77
2022-12-06T01:46:43.183Z,22.98
2022-12-06T01:49:20.143Z,24.50
2022-12-06T01:51:54.179Z,22.90
2022-12-06T01:54:24.771Z,24.17
2022-12-06T01:56:55.117Z,23.08
2022-12-06T01:59:24.897Z,19.58
2022-12-06T02:01:54.517Z,16.98
2022-12-06T02:04:24.011Z,18.92
2022-12-06T02:06:55.774Z,22.13
2022-12-06T02:09:24.615Z,23.73
2022-12-06T02:11:52.872Z,24.25
2022-12-06T02:14:26.357Z,18.58
2022-12-06T02:17:10.741Z,16.15
2022-12-06T02:20:15.467Z,17.55
2022-12-06T02:23:14.134Z,19.35
2022-12-06T02:26:25.978Z,19.77
2022-12-06T02:29:48.413Z,16.70
2022-12-06T02:32:22.929Z,17.63
2022-12-06T02:34:59.015Z,20.90
2022-12-06T02:37:32.521Z,17.95
2022-12-06T02:40:07.004Z,17.23
2022-12-06T02:42:40.147Z,14.45
2022-12-06T02:45:13.439Z,16.42
2022-12-06T02:47:44.842Z,17.27
2022-12-06T02:50:18.239Z,21.77
2022-12-06T02:52:51.138Z,15.60
2022-12-06T02:55:20.584Z,18.50
2022-12-06T02:57:52.229Z,15.13
2022-12-06T03:00:37.638Z,17.52
2022-12-06T03:03:35.051Z,19.55
2022-12-06T03:06:37.651Z,15.13
2022-12-06T03:09:21.974Z,16.48
2022-12-06T03:11:58.750Z,14.05
2022-12-06T03:14:30.234Z,14.98
2022-12-06T03:17:11.582Z,17.48
2022-12-06T03:19:42.536Z,19.52
2022-12-06T03:22:16.196Z,16.30
2022-12-06T03:24:45.498Z,16.00
2022-12-06T03:27:18.756Z,16.77
2022-12-06T03:29:52.310Z,16.60
2022-12-06T03:32:25.213Z,16.95
2022-12-06T03:34:57.490Z,14.63
2022-12-06T03:37:29.280Z,15.82
2022-12-06T03:40:05.250Z,17.80
2022-12-06T03:42:35.220Z,13.13
2022-12-06T03:45:05.527Z,15.00
2022-12-06T03:47:39.257Z,14.07
2022-12-06T03:50:14.797Z,16.05
2022-12-06T03:52:43.083Z,14.93
2022-12-06T03:55:11.500Z,13.63
2022-12-06T03:57:39.741Z,12.75
2022-12-06T04:00:09.989Z,16.45
2022-12-06T04:02:38.325Z,14.10
2022-12-06T04:05:09.005Z,12.70
2022-12-06T04:07:37.424Z,13.70
2022-12-06T04:10:07.821Z,16.27
2022-12-06T04:12:54.514Z,15.05
2022-12-06T04:15:24.407Z,14.00
2022-12-06T04:18:10.166Z,11.55
2022-12-06T04:21:03.558Z,14.38
2022-12-06T04:23:34.236Z,16.00
2022-12-06T04:26:02.884Z,13.10
2022-12-06T04:28:49.017Z,14.80
2022-12-06T04:31:34.550Z,9.90
2022-12-06T04:34:20.201Z,9.93
2022-12-06T04:37:07.420Z,15.45
2022-12-06T04:39:35.866Z,19.08
2022-12-06T04:42:22.096Z,11.77
2022-12-06T04:44:50.295Z,16.70
2022-12-06T04:47:18.752Z,14.60
2022-12-06T04:49:47.018Z,14.65
2022-12-06T04:52:16.996Z,14.50
2022-12-06T04:54:45.331Z,12.68
2022-12-06T04:57:16.722Z,15.93
2022-12-06T04:59:47.404Z,10.85
2022-12-06T05:02:17.178Z,11.93
2022-12-06T05:04:45.522Z,12.45
2022-12-06T05:07:13.885Z,13.88
2022-12-06T05:09:43.426Z,22.20
2022-12-06T05:12:11.823Z,14.32
2022-12-06T05:14:40.077Z,11.88
2022-12-06T05:17:08.283Z,12.90
2022-12-06T05:19:36.409Z,13.70
2022-12-06T05:22:05.208Z,11.95
2022-12-06T05:24:33.593Z,14.73
2022-12-06T05:27:03.171Z,19.00
2022-12-06T05:29:31.535Z,16.40
2022-12-06T05:31:59.799Z,12.27
2022-12-06T05:34:28.293Z,15.52
2022-12-06T05:36:56.638Z,10.30
2022-12-06T05:39:25.038Z,14.00
2022-12-06T05:41:53.327Z,13.02
2022-12-06T05:44:22.967Z,12.02
2022-12-06T05:46:51.160Z,15.13
2022-12-06T05:49:19.606Z,16.02
2022-12-06T05:51:47.897Z,12.05
2022-12-06T05:54:16.153Z,11.93
2022-12-06T05:56:44.338Z,11.23
2022-12-06T05:59:12.957Z,10.95
2022-12-06T06:01:43.670Z,11.07
2022-12-06T06:04:12.048Z,11.20
2022-12-06T06:06:40.384Z,10.07
2022-12-06T06:09:08.908Z,10.85
2022-12-06T06:11:37.293Z,10.82
2022-12-06T06:14:05.495Z,10.25
2022-12-06T06:16:34.387Z,12.05
2022-12-06T06:19:04.629Z,9.63
2022-12-06T06:21:33.543Z,12.40
2022-12-06T06:24:01.965Z,14.60
2022-12-06T06:26:30.569Z,9.23
2022-12-06T06:28:58.833Z,8.98
2022-12-06T06:31:27.018Z,12.77
2022-12-06T06:33:55.262Z,12.90
2022-12-06T07:26:42.681Z,9.65
2022-12-06T07:29:11.013Z,13.13
2022-12-06T07:31:42.605Z,8.85
2022-12-06T07:34:11.440Z,11.70
2022-12-06T07:36:39.769Z,8.73
2022-12-06T07:39:14.292Z,9.40
2022-12-06T07:42:02.261Z,9.10
2022-12-06T07:44:48.122Z,9.52
2022-12-06T07:47:16.503Z,8.60
2022-12-06T07:49:45.255Z,7.18
2022-12-06T07:52:13.782Z,8.57
2022-12-06T07:54:42.666Z,8.27
2022-12-06T07:57:15.010Z,8.82
2022-12-06T07:59:43.588Z,7.68
2022-12-06T08:02:19.888Z,11.63
2022-12-06T08:04:48.503Z,9.80
2022-12-06T08:07:18.048Z,17.55
2022-12-06T08:09:46.771Z,21.65
2022-12-06T08:12:16.664Z,20.02
2022-12-06T08:14:45.096Z,25.52
2022-12-06T08:17:13.704Z,22.77
2022-12-06T08:19:42.135Z,25.27
2022-12-06T08:22:11.894Z,23.92
2022-12-06T08:24:40.953Z,28.90
2022-12-06T08:27:09.728Z,24.13
2022-12-06T08:29:40.035Z,28.80
2022-12-06T08:32:08.519Z,25.70
2022-12-06T08:34:37.029Z,30.02
2022-12-06T08:37:05.308Z,31.70
2022-12-06T08:39:33.607Z,29.90
2022-12-06T08:42:03.516Z,28.92
2022-12-06T08:44:33.255Z,23.23
2022-12-06T08:47:03.661Z,24.48
2022-12-06T08:49:32.574Z,19.58
2022-12-06T08:52:01.893Z,18.45
2022-12-06T08:54:30.729Z,18.27
2022-12-06T08:57:08.475Z,19.10
2022-12-06T08:59:36.826Z,16.52
2022-12-06T09:02:06.578Z,15.20
2022-12-06T09:04:34.922Z,15.10
2022-12-06T09:07:06.288Z,17.23
2022-12-06T09:09:37.136Z,16.70
2022-12-06T09:12:05.789Z,20.02
2022-12-06T09:14:34.085Z,16.10
2022-12-06T09:17:02.314Z,15.68
2022-12-06T09:19:34.514Z,19.52
2022-12-06T09:22:02.847Z,18.60
2022-12-06T09:24:31.156Z,19.52
2022-12-06T09:26:59.447Z,19.02
2022-12-06T09:29:27.827Z,22.23
2022-12-06T09:31:56.111Z,18.83
2022-12-06T09:34:24.527Z,17.40
2022-12-06T09:36:58.853Z,16.55
2022-12-06T09:39:31.111Z,17.02
2022-12-06T09:42:58.511Z,17.25
2022-12-06T09:46:00.855Z,17.25
2022-12-06T09:48:55.079Z,13.38
2022-12-06T09:51:39.223Z,15.60
2022-12-06T09:54:26.580Z,16.10
2022-12-06T09:57:03.564Z,14.73
2022-12-06T09:59:44.342Z,16.95
2022-12-06T10:02:52.881Z,14.18
2022-12-06T10:05:35.529Z,15.02
2022-12-06T10:08:21.643Z,11.90
2022-12-06T10:11:02.827Z,11.50
2022-12-06T10:13:51.894Z,12.27
2022-12-06T10:16:36.204Z,13.85
2022-12-06T10:19:16.053Z,11.35
2022-12-06T10:21:57.552Z,10.93
2022-12-06T10:24:46.497Z,13.73
2022-12-06T10:27:25.208Z,11.43
2022-12-06T10:29:59.090Z,13.98
2022-12-06T10:32:51.810Z,13.90
2022-12-06T10:35:37.895Z,12.90
2022-12-06T10:38:20.957Z,10.57
2022-12-06T10:41:00.770Z,13.60
2022-12-06T10:43:39.968Z,14.23
2022-12-06T10:46:30.488Z,14.40
2022-12-06T10:49:08.801Z,10.60
2022-12-06T10:51:43.385Z,10.32
2022-12-06T10:54:23.041Z,11.88
2022-12-06T10:56:55.253Z,13.95
2022-12-06T10:59:33.380Z,15.48
2022-12-06T11:02:16.756Z,14.18
2022-12-06T11:04:47.838Z,11.52
2022-12-06T11:07:21.875Z,14.25
2022-12-06T11:09:53.948Z,12.50
2022-12-06T11:12:31.277Z,9.07
2022-12-06T11:15:14.212Z,11.55
2022-12-06T11:17:47.863Z,9.20
2022-12-06T11:20:28.737Z,9.98
2022-12-06T11:23:09.865Z,11.25
2022-12-06T11:26:02.970Z,10.90
2022-12-06T11:28:42.209Z,11.35
2022-12-06T11:31:26.348Z,10.00
2022-12-06T11:33:54.873Z,9.98
2022-12-06T11:36:25.965Z,8.52
2022-12-06T11:38:54.540Z,9.10
2022-12-06T11:41:26.291Z,6.95
2022-12-06T11:43:55.548Z,7.97
2022-12-06T11:46:26.753Z,9.98
2022-12-06T11:48:55.896Z,9.20
2022-12-06T11:51:26.557Z,8.80
2022-12-06T11:54:07.169Z,9.00
2022-12-06T11:56:38.747Z,11.32
2022-12-06T11:59:24.918Z,10.20
2022-12-06T12:01:57.694Z,7.88
2022-12-06T12:04:37.466Z,11.50
2022-12-06T12:07:14.197Z,9.32
2022-12-06T12:09:55.511Z,9.60
2022-12-06T12:12:48.007Z,8.57
2022-12-06T12:15:18.823Z,12.20
2022-12-06T12:17:53.757Z,7.93
2022-12-06T12:20:28.184Z,8.63
2022-12-06T12:23:02.465Z,11.15
2022-12-06T12:25:33.474Z,10.43
2022-12-06T12:28:02.750Z,13.15
2022-12-06T12:30:36.367Z,10.45
2022-12-06T12:33:22.599Z,8.02
2022-12-06T12:35:55.577Z,8.52
2022-12-06T12:38:39.107Z,8.07
2022-12-06T12:41:27.590Z,7.05
2022-12-06T12:44:35.801Z,8.93
2022-12-06T12:46:58.586Z,8.80
2022-12-06T12:49:43.765Z,11.57
2022-12-06T12:52:30.213Z,11.85
2022-12-06T12:55:04.968Z,13.52
2022-12-06T12:57:33.441Z,9.20
2022-12-06T13:00:01.808Z,8.80
2022-12-06T13:02:32.670Z,10.07
2022-12-06T13:08:07.060Z,9.40
2022-12-06T13:10:38.804Z,8.13
2022-12-06T13:13:15.917Z,9.02
2022-12-06T13:15:47.532Z,6.28
2022-12-06T13:18:22.411Z,7.82
2022-12-06T13:20:56.313Z,7.45
2022-12-06T13:23:30.393Z,7.35
2022-12-06T13:26:06.389Z,9.55
2022-12-06T13:28:41.784Z,8.30
2022-12-06T13:31:17.051Z,7.30
2022-12-06T13:33:50.863Z,6.03
2022-12-06T13:36:22.641Z,6.78
2022-12-06T13:38:51.305Z,6.60
2022-12-06T13:42:12.928Z,5.20
2022-12-06T13:44:43.739Z,5.65
2022-12-06T13:47:51.767Z,7.32
2022-12-06T13:50:54.512Z,6.07
2022-12-06T13:53:26.510Z,7.97
2022-12-06T13:56:00.882Z,6.47
2022-12-06T13:58:55.154Z,4.63
2022-12-06T14:01:42.086Z,5.75
2022-12-06T14:09:43.961Z,5.53
2022-12-06T14:12:21.049Z,5.00
2022-12-06T14:14:59.559Z,5.38
2022-12-06T14:18:01.530Z,4.18
2022-12-06T14:20:29.014Z,5.40
2022-12-06T14:22:58.223Z,4.78
2022-12-06T14:25:29.791Z,4.05
2022-12-06T14:28:06.097Z,3.13
2022-12-06T14:30:34.830Z,4.00
2022-12-06T14:33:03.254Z,6.03
2022-12-06T14:35:36.321Z,4.43
2022-12-06T14:38:22.909Z,3.80
2022-12-06T14:41:11.483Z,9.55
2022-12-06T14:43:42.446Z,5.13
2022-12-06T14:46:16.215Z,5.60
2022-12-06T14:49:04.000Z,4.47
2022-12-06T14:51:38.567Z,10.05
2022-12-06T14:54:20.206Z,7.00
2022-12-06T14:56:49.989Z,5.00
2022-12-06T14:59:47.474Z,8.80
2022-12-06T15:02:24.647Z,8.50
2022-12-06T15:04:53.481Z,8.48
2022-12-06T15:07:41.198Z,5.38
2022-12-06T15:10:23.734Z,6.97
2022-12-06T15:12:56.167Z,7.78
2022-12-06T15:15:40.432Z,10.15
2022-12-06T15:18:18.552Z,6.82
2022-12-06T15:20:48.996Z,9.00
2022-12-06T15:23:41.072Z,7.75
2022-12-06T15:26:13.420Z,9.48
2022-12-06T15:28:43.601Z,7.82
2022-12-06T15:31:20.880Z,7.75
2022-12-06T15:33:50.798Z,10.30
2022-12-06T15:36:21.778Z,7.10
2022-12-06T15:38:50.924Z,7.80
2022-12-06T15:41:22.703Z,8.63
2022-12-06T15:43:54.256Z,9.73
2022-12-06T15:46:25.881Z,7.88
2022-12-06T15:48:55.843Z,7.85
2022-12-06T15:51:27.148Z,9.13
2022-12-06T15:53:58.195Z,8.07
2022-12-06T15:56:30.732Z,9.00
2022-12-06T15:59:00.693Z,8.38
2022-12-06T16:01:33.783Z,6.53
2022-12-06T16:04:03.360Z,8.77
2022-12-06T16:06:32.199Z,8.77
2022-12-06T16:09:00.536Z,9.55
2022-12-06T16:11:28.795Z,9.20
2022-12-06T16:13:57.029Z,15.73
2022-12-06T16:16:26.884Z,20.92
2022-12-06T16:18:55.621Z,11.18
2022-12-06T16:21:27.175Z,17.15
2022-12-06T16:24:16.539Z,13.55
2022-12-06T16:26:46.142Z,10.70
2022-12-06T16:29:17.881Z,10.90
2022-12-06T16:31:48.295Z,11.77
2022-12-06T16:34:17.193Z,18.50
2022-12-06T16:37:01.249Z,11.43
2022-12-06T16:39:31.936Z,12.70
2022-12-06T16:42:00.306Z,12.88
2022-12-06T16:44:29.154Z,15.48
2022-12-06T16:46:59.672Z,13.38
2022-12-06T16:49:48.799Z,13.35
2022-12-06T16:52:19.460Z,13.85
2022-12-06T16:54:48.377Z,12.52
2022-12-06T16:57:19.665Z,9.90
2022-12-06T16:59:48.635Z,11.00
2022-12-06T17:02:28.952Z,13.57
2022-12-06T17:04:59.075Z,11.82
2022-12-06T17:07:28.057Z,8.93
2022-12-06T17:09:56.738Z,8.90
2022-12-06T17:12:25.722Z,9.25
2022-12-06T17:14:54.273Z,10.63
2022-12-06T17:17:26.256Z,7.22
2022-12-06T17:19:56.608Z,12.55
2022-12-06T17:22:25.187Z,10.98
2022-12-06T17:24:53.713Z,15.38
2022-12-06T17:27:22.288Z,11.43
2022-12-06T17:29:50.658Z,11.57
2022-12-06T17:32:20.747Z,9.75
2022-12-06T17:34:50.410Z,9.38
2022-12-06T17:37:18.900Z,10.63
2022-12-06T17:39:48.889Z,16.48
2022-12-06T17:42:35.064Z,11.88
2022-12-06T17:45:04.034Z,9.73
2022-12-06T17:47:33.854Z,11.88
2022-12-06T17:50:05.027Z,14.68
2022-12-06T17:52:33.816Z,10.07
2022-12-06T17:55:02.711Z,11.82
2022-12-06T17:57:31.254Z,12.13
2022-12-06T17:59:59.582Z,9.10
2022-12-06T18:02:28.033Z,11.63
2022-12-06T18:04:56.700Z,12.02
2022-12-06T18:07:26.923Z,11.63
2022-12-06T18:09:55.993Z,12.23
2022-12-06T18:12:24.634Z,11.02
2022-12-06T18:14:53.588Z,12.93
2022-12-06T18:17:22.500Z,14.02
2022-12-06T18:19:50.763Z,14.32
2022-12-06T18:22:20.330Z,19.13
2022-12-06T18:24:50.417Z,23.52
2022-12-06T18:27:18.803Z,23.20
2022-12-06T18:29:47.132Z,15.05
2022-12-06T18:32:15.444Z,12.73
2022-12-06T18:34:43.753Z,12.13
2022-12-06T18:37:12.024Z,10.38
2022-12-06T18:39:40.401Z,12.85
2022-12-06T18:42:10.054Z,10.48
2022-12-06T18:44:40.888Z,14.55
2022-12-06T18:47:09.147Z,10.52
2022-12-06T18:49:37.475Z,7.45
2022-12-06T18:52:05.831Z,9.32
2022-12-06T18:54:34.079Z,12.70
2022-12-06T18:57:02.297Z,11.05
2022-12-06T18:59:32.249Z,11.55
2022-12-06T19:02:00.581Z,10.68
2022-12-06T19:04:28.942Z,11.65
2022-12-06T19:06:57.225Z,11.27
2022-12-06T19:09:25.547Z,13.25
2022-12-06T19:11:53.895Z,12.77
2022-12-06T19:14:23.239Z,11.02
2022-12-06T19:16:53.715Z,12.43
2022-12-06T19:19:38.032Z,14.38
2022-12-06T19:22:08.865Z,12.68
2022-12-06T19:24:37.572Z,11.50
2022-12-06T19:27:06.085Z,14.88
2022-12-06T19:29:35.809Z,16.88
2022-12-06T19:32:06.155Z,14.15
2022-12-06T19:34:34.497Z,13.85
2022-12-06T19:37:03.029Z,14.95
2022-12-06T19:39:32.506Z,17.25
2022-12-06T19:42:20.555Z,15.52
2022-12-06T19:44:52.670Z,13.85
2022-12-06T19:47:23.995Z,12.73
2022-12-06T19:49:52.313Z,11.27
2022-12-06T19:52:20.723Z,16.33
2022-12-06T19:54:48.952Z,15.10
2022-12-06T19:57:17.264Z,16.45
2022-12-06T19:59:45.534Z,21.88
2022-12-06T20:02:14.550Z,18.50
2022-12-06T20:04:46.101Z,21.60
2022-12-06T20:07:14.750Z,17.98
2022-12-06T20:09:43.209Z,14.95
2022-12-06T20:12:13.585Z,14.82
2022-12-06T20:14:45.123Z,14.88
2022-12-06T20:17:15.904Z,30.77
2022-12-06T20:19:47.150Z,28.77
2022-12-06T20:22:17.300Z,21.88
2022-12-06T20:24:46.548Z,22.27
2022-12-06T20:27:15.210Z,36.38
2022-12-06T20:29:43.765Z,17.90
2022-12-06T20:32:12.380Z,17.92
2022-12-06T20:34:40.791Z,17.73
2022-12-06T20:37:11.064Z,16.13
2022-12-06T20:39:39.508Z,16.83
2022-12-06T20:42:08.091Z,19.77
2022-12-06T20:44:37.008Z,14.77
2022-12-06T20:47:05.773Z,20.35
2022-12-06T20:49:34.947Z,16.83
2022-12-06T20:52:04.885Z,19.42
2022-12-06T20:54:36.755Z,12.90
2022-12-06T20:57:08.406Z,22.30
2022-12-06T20:59:40.116Z,21.10
2022-12-06T21:02:11.273Z,20.33
2022-12-06T21:04:39.711Z,19.10
2022-12-06T21:07:08.193Z,21.23
2022-12-06T21:09:37.918Z,19.98
2022-12-06T21:12:06.658Z,31.45
2022-12-06T21:14:40.907Z,30.08
2022-12-06T21:17:09.210Z,25.85
2022-12-06T21:19:39.271Z,19.50
2022-12-06T21:22:08.174Z,23.77
2022-12-06T21:24:39.333Z,21.95
2022-12-06T21:27:07.601Z,18.80
2022-12-06T21:29:36.531Z,17.92
2022-12-06T21:32:05.153Z,19.38
2022-12-06T21:34:33.519Z,21.13
2022-12-06T21:37:01.744Z,19.92
2022-12-06T21:39:30.085Z,20.13
2022-12-06T21:41:59.714Z,19.23
2022-12-06T21:44:28.026Z,22.50
2022-12-06T21:46:56.487Z,21.55
2022-12-06T21:49:25.002Z,20.90
2022-12-06T21:52:00.346Z,18.42
2022-12-06T21:54:30.479Z,23.17
2022-12-06T21:57:00.107Z,36.42
2022-12-06T21:59:28.736Z,24.95
2022-12-06T22:01:57.053Z,21.58
2022-12-06T22:04:25.375Z,19.52
2022-12-06T22:06:53.679Z,19.23
2022-12-06T22:09:22.133Z,17.08
2022-12-06T22:11:50.619Z,17.95
2022-12-06T22:14:20.816Z,18.50
2022-12-06T22:16:51.102Z,19.90
2022-12-06T22:19:19.768Z,18.05
2022-12-06T22:21:48.365Z,13.07
2022-12-06T22:24:16.820Z,16.20
2022-12-06T22:26:45.071Z,17.10
2022-12-06T22:29:13.484Z,15.30
2022-12-06T22:31:43.658Z,16.15
2022-12-06T22:34:12.462Z,18.33
2022-12-06T22:36:40.737Z,16.45
2022-12-06T22:39:09.082Z,15.68
2022-12-06T22:41:37.641Z,13.45
2022-12-06T22:44:08.026Z,16.33
2022-12-06T22:46:37.738Z,14.20
2022-12-06T22:49:07.562Z,14.85
2022-12-06T22:51:37.748Z,15.15
2022-12-06T22:54:08.686Z,16.85
2022-12-06T22:56:36.923Z,18.73
2022-12-06T22:59:05.704Z,17.08
2022-12-06T23:01:35.962Z,17.60
2022-12-06T23:04:07.950Z,16.17
2022-12-06T23:06:37.262Z,12.73
2022-12-06T23:09:07.032Z,15.30
2022-12-06T23:11:37.798Z,18.42
2022-12-06T23:14:08.099Z,17.55
2022-12-06T23:16:37.042Z,17.80
2022-12-06T23:19:06.796Z,16.30
2022-12-06T23:21:37.720Z,14.10
2022-12-06T23:24:09.252Z,20.20
2022-12-06T23:26:40.674Z,15.45
2022-12-06T23:29:09.810Z,12.35
2022-12-06T23:31:40.846Z,14.88
2022-12-06T23:34:15.778Z,14.55
2022-12-06T23:36:44.574Z,19.70
2022-12-06T23:39:13.291Z,14.55
2022-12-06T23:41:42.009Z,19.30
2022-12-06T23:44:13.605Z,17.15
2022-12-06T23:46:43.456Z,16.50
2022-12-06T23:49:18.285Z,15.57
2022-12-06T23:51:47.201Z,15.88
2022-12-06T23:54:17.666Z,13.57
2022-12-06T23:56:46.988Z,13.65
2022-12-06T23:59:16.871Z,15.15
